createdAt,value
2017-12-15T00:00:34.133Z,73.10
2017-12-15T00:03:01.755Z,73.10
2017-12-15T00:05:29.291Z,73.70
2017-12-15T00:07:57.550Z,73.50
2017-12-15T00:10:25.800Z,73.60
2017-12-15T00:12:53.306Z,73.60
2017-12-15T00:15:21.584Z,73.10
2017-12-15T00:17:49.865Z,72.60
2017-12-15T00:20:18.137Z,72.40
2017-12-15T00:22:46.444Z,72.70
2017-12-15T00:25:14.685Z,73.30
2017-12-15T00:27:43.016Z,73.50
2017-12-15T00:30:11.378Z,73.50
2017-12-15T00:32:39.638Z,73.30
2017-12-15T00:35:07.917Z,73.20
2017-12-15T00:37:36.204Z,73.00
2017-12-15T00:40:04.452Z,72.70
2017-12-15T00:42:31.988Z,73.00
2017-12-15T00:44:59.484Z,72.90
2017-12-15T00:47:26.971Z,73.30
2017-12-15T00:49:54.544Z,73.40
2017-12-15T00:52:22.114Z,73.10
2017-12-15T00:54:49.785Z,72.80
2017-12-15T00:57:18.033Z,73.20
2017-12-15T00:59:45.536Z,73.20
2017-12-15T01:02:13.622Z,73.60
2017-12-15T01:04:41.109Z,73.00
2017-12-15T01:07:08.619Z,72.60
2017-12-15T01:09:36.887Z,72.50
2017-12-15T01:12:04.364Z,72.50
2017-12-15T01:14:32.637Z,73.00
2017-12-15T01:17:00.347Z,73.00
2017-12-15T01:19:27.873Z,73.10
2017-12-15T01:21:56.144Z,73.00
2017-12-15T01:24:23.640Z,73.00
2017-12-15T01:26:51.196Z,73.50
2017-12-15T01:29:18.686Z,73.50
2017-12-15T01:31:46.200Z,73.70
2017-12-15T01:34:15.820Z,74.20
2017-12-15T01:36:44.125Z,74.70
2017-12-15T01:39:11.665Z,74.60
2017-12-15T01:41:39.917Z,75.60
2017-12-15T01:44:07.417Z,75.50
2017-12-15T01:46:35.695Z,76.20
2017-12-15T01:49:03.967Z,76.30
2017-12-15T01:51:31.590Z,76.30
2017-12-15T01:53:59.115Z,76.30
2017-12-15T01:56:29.508Z,76.80
2017-12-15T01:58:57.038Z,76.70
2017-12-15T02:01:24.528Z,77.20
2017-12-15T02:03:52.042Z,77.30
2017-12-15T02:06:20.321Z,77.50
2017-12-15T02:08:47.832Z,77.50
2017-12-15T02:11:15.324Z,77.50
2017-12-15T02:13:43.573Z,77.20
2017-12-15T02:16:11.061Z,77.30
2017-12-15T02:18:38.667Z,77.40
2017-12-15T02:21:06.209Z,77.70
2017-12-15T02:23:34.482Z,78.00
2017-12-15T02:26:02.741Z,77.90
2017-12-15T02:28:30.361Z,77.80
2017-12-15T02:30:57.909Z,78.10
2017-12-15T02:33:25.888Z,78.40
2017-12-15T02:35:53.444Z,78.90
2017-12-15T02:38:20.951Z,79.40
2017-12-15T02:40:48.464Z,79.70
2017-12-15T02:43:16.709Z,80.10
2017-12-15T02:45:44.305Z,80.20
2017-12-15T02:48:12.561Z,80.30
2017-12-15T02:50:40.058Z,80.30
2017-12-15T02:53:07.633Z,80.40
2017-12-15T02:55:36.105Z,80.50
2017-12-15T02:58:04.395Z,80.40
2017-12-15T03:00:32.426Z,80.30
2017-12-15T03:02:59.923Z,80.50
2017-12-15T03:05:28.895Z,80.60
2017-12-15T03:07:57.152Z,80.50
2017-12-15T03:10:24.698Z,80.40
2017-12-15T03:12:52.209Z,80.50
2017-12-15T03:15:19.686Z,80.20
2017-12-15T03:17:47.962Z,79.70
2017-12-15T03:20:16.239Z,79.40
2017-12-15T03:22:44.532Z,79.50
2017-12-15T03:25:12.834Z,79.70
2017-12-15T03:27:40.342Z,79.70
2017-12-15T03:30:07.925Z,79.60
2017-12-15T03:32:35.426Z,79.60
2017-12-15T03:35:02.949Z,79.80
2017-12-15T03:37:30.537Z,80.10
2017-12-15T03:39:58.785Z,80.40
2017-12-15T03:42:26.296Z,80.40
2017-12-15T03:44:53.799Z,80.40
2017-12-15T03:47:21.485Z,80.50
2017-12-15T03:49:49.071Z,80.30
2017-12-15T03:52:16.533Z,80.30
2017-12-15T03:54:44.816Z,80.10
2017-12-15T03:57:13.080Z,80.20
2017-12-15T03:59:41.669Z,80.30
2017-12-15T04:02:09.933Z,80.50
2017-12-15T04:04:37.409Z,80.50
2017-12-15T04:07:04.900Z,80.60
2017-12-15T04:09:32.451Z,80.60
2017-12-15T04:12:00.756Z,81.30
2017-12-15T04:14:28.244Z,80.70
2017-12-15T04:16:55.748Z,80.90
2017-12-15T04:19:23.999Z,80.90
2017-12-15T04:21:51.496Z,80.80
2017-12-15T04:24:19.764Z,80.70
2017-12-15T04:26:47.250Z,80.60
2017-12-15T04:29:14.853Z,80.50
2017-12-15T04:31:42.341Z,80.50
2017-12-15T04:34:09.845Z,80.10
2017-12-15T04:36:37.393Z,79.60
2017-12-15T04:39:05.841Z,79.60
2017-12-15T04:41:33.396Z,79.70
2017-12-15T04:44:01.298Z,80.00
2017-12-15T04:46:28.780Z,80.20
2017-12-15T04:48:57.102Z,80.60
2017-12-15T04:51:24.595Z,80.60
2017-12-15T04:53:52.980Z,80.60
2017-12-15T04:56:20.757Z,80.60
2017-12-15T04:58:49.053Z,80.70
2017-12-15T05:01:17.304Z,80.70
2017-12-15T05:03:44.803Z,80.70
2017-12-15T05:06:13.079Z,82.40
2017-12-15T05:08:41.324Z,80.80
2017-12-15T05:11:09.734Z,80.80
2017-12-15T05:13:37.991Z,80.90
2017-12-15T05:16:05.540Z,80.70
2017-12-15T05:18:33.064Z,80.70
2017-12-15T05:21:00.551Z,80.80
2017-12-15T05:23:28.040Z,80.40
2017-12-15T05:25:55.541Z,80.30
2017-12-15T05:28:23.815Z,79.90
2017-12-15T05:30:52.095Z,79.50
2017-12-15T05:33:20.360Z,79.20
2017-12-15T05:35:47.858Z,79.10
2017-12-15T05:38:15.376Z,79.00
2017-12-15T05:40:42.877Z,79.00
2017-12-15T05:43:10.362Z,78.90
2017-12-15T05:45:38.605Z,78.50
2017-12-15T05:48:07.828Z,78.30
2017-12-15T05:50:36.980Z,78.50
2017-12-15T05:53:04.464Z,78.50
2017-12-15T05:55:32.717Z,77.80
2017-12-15T05:58:00.236Z,77.70
2017-12-15T06:00:27.740Z,77.60
2017-12-15T06:02:55.350Z,77.70
2017-12-15T06:05:23.626Z,77.90
2017-12-15T06:07:51.925Z,77.90
2017-12-15T06:10:19.473Z,77.90
2017-12-15T06:12:47.735Z,77.20
2017-12-15T06:15:15.322Z,77.20
2017-12-15T06:17:43.583Z,77.30
2017-12-15T06:20:12.613Z,77.30
2017-12-15T06:22:40.388Z,77.30
2017-12-15T06:25:07.957Z,77.20
2017-12-15T06:27:35.492Z,77.30
2017-12-15T06:30:03.775Z,77.10
2017-12-15T06:32:33.074Z,76.90
2017-12-15T06:35:01.371Z,77.00
2017-12-15T06:37:29.616Z,77.00
2017-12-15T06:39:57.152Z,77.70
2017-12-15T06:42:24.679Z,77.00
2017-12-15T06:44:52.929Z,77.00
2017-12-15T06:47:21.230Z,77.10
2017-12-15T06:49:51.666Z,77.20
2017-12-15T06:52:19.939Z,77.70
2017-12-15T06:54:48.253Z,77.50
2017-12-15T06:57:15.756Z,77.50
2017-12-15T06:59:43.275Z,77.50
2017-12-15T07:02:10.769Z,77.80
2017-12-15T07:04:38.286Z,78.10
2017-12-15T07:07:05.847Z,78.50
2017-12-15T07:09:34.146Z,78.60
2017-12-15T07:12:01.679Z,78.60
2017-12-15T07:14:29.939Z,78.40
2017-12-15T07:16:57.481Z,78.40
2017-12-15T07:19:25.034Z,78.20
2017-12-15T07:21:52.565Z,77.80
2017-12-15T07:24:20.928Z,77.90
2017-12-15T07:26:49.309Z,77.20
2017-12-15T07:29:16.914Z,77.20
2017-12-15T07:31:44.401Z,77.10
2017-12-15T07:34:11.946Z,77.20
2017-12-15T07:36:39.489Z,77.20
2017-12-15T07:39:06.974Z,77.50
2017-12-15T07:41:34.540Z,77.60
2017-12-15T07:44:02.032Z,77.60
2017-12-15T07:46:29.680Z,78.40
2017-12-15T07:48:57.213Z,77.90
2017-12-15T07:51:24.732Z,77.80
2017-12-15T07:53:52.994Z,77.60
2017-12-15T07:56:20.476Z,77.80
2017-12-15T07:58:48.072Z,77.10
2017-12-15T08:01:16.370Z,77.00
2017-12-15T08:03:43.906Z,76.80
2017-12-15T08:06:13.000Z,76.60
2017-12-15T08:08:40.619Z,76.60
2017-12-15T08:11:08.144Z,76.20
2017-12-15T08:13:36.409Z,76.20
2017-12-15T08:16:03.976Z,76.20
2017-12-15T08:18:31.514Z,76.60
2017-12-15T08:20:59.032Z,76.80
2017-12-15T08:23:26.607Z,76.90
2017-12-15T08:25:54.104Z,76.80
2017-12-15T08:28:21.609Z,77.10
2017-12-15T08:30:49.996Z,77.40
2017-12-15T08:33:17.550Z,77.40
2017-12-15T08:35:45.861Z,77.50
2017-12-15T08:38:14.210Z,77.40
2017-12-15T08:40:42.461Z,77.00
2017-12-15T08:43:09.983Z,77.00
2017-12-15T08:45:37.468Z,77.00
2017-12-15T08:48:05.745Z,76.80
2017-12-15T08:50:34.459Z,76.50
2017-12-15T08:53:01.942Z,76.30
2017-12-15T08:55:30.258Z,75.90
2017-12-15T08:57:57.741Z,75.80
2017-12-15T09:00:25.256Z,75.60
2017-12-15T09:02:53.556Z,75.70
2017-12-15T09:05:21.085Z,75.50
2017-12-15T09:07:48.669Z,75.10
2017-12-15T09:10:17.306Z,74.50
2017-12-15T09:12:45.978Z,74.10
2017-12-15T09:15:13.965Z,74.00
2017-12-15T09:17:41.489Z,73.90
2017-12-15T09:20:09.008Z,73.60
2017-12-15T09:22:36.490Z,72.70
2017-12-15T09:25:05.636Z,71.20
2017-12-15T09:27:33.308Z,71.20
2017-12-15T09:30:00.816Z,70.80
2017-12-15T09:32:28.314Z,71.50
2017-12-15T09:34:56.503Z,71.50
2017-12-15T09:37:24.060Z,71.50
2017-12-15T09:39:52.363Z,70.90
2017-12-15T09:42:20.263Z,70.90
2017-12-15T09:44:48.538Z,70.40
2017-12-15T09:47:16.388Z,70.20
2017-12-15T09:49:45.016Z,70.20
2017-12-15T09:52:13.742Z,70.50
2017-12-15T09:54:42.781Z,71.20
2017-12-15T09:57:10.585Z,71.20
2017-12-15T09:59:38.279Z,71.00
2017-12-15T10:02:07.104Z,71.40
2017-12-15T10:04:35.401Z,72.00
2017-12-15T10:07:03.504Z,71.90
2017-12-15T10:09:31.251Z,71.50
2017-12-15T10:11:59.026Z,71.50
2017-12-15T10:14:27.138Z,71.60
2017-12-15T10:16:54.792Z,71.30
2017-12-15T10:19:22.395Z,71.60
2017-12-15T10:21:49.959Z,71.70
2017-12-15T10:24:18.500Z,71.80
2017-12-15T10:26:47.366Z,72.30
2017-12-15T10:29:15.054Z,72.40
2017-12-15T10:31:44.252Z,72.50
2017-12-15T10:34:13.403Z,72.50
2017-12-15T10:36:41.113Z,72.30
2017-12-15T10:39:08.642Z,72.60
2017-12-15T10:41:36.403Z,72.70
2017-12-15T10:44:04.176Z,73.40
2017-12-15T10:46:32.114Z,73.80
2017-12-15T10:48:59.681Z,73.50
2017-12-15T10:51:27.381Z,73.30
2017-12-15T10:53:55.181Z,73.40
2017-12-15T10:56:22.709Z,73.40
2017-12-15T10:58:50.571Z,73.30
2017-12-15T11:01:19.559Z,73.00
2017-12-15T11:03:47.940Z,74.20
2017-12-15T11:06:16.220Z,74.20
2017-12-15T11:08:44.172Z,74.20
2017-12-15T11:11:11.682Z,74.50
2017-12-15T11:13:39.252Z,74.00
2017-12-15T11:16:06.820Z,74.00
2017-12-15T11:18:34.361Z,74.10
2017-12-15T11:21:02.639Z,74.50
2017-12-15T11:23:30.884Z,74.70
2017-12-15T11:25:58.405Z,74.60
2017-12-15T11:28:26.276Z,74.70
2017-12-15T11:30:53.909Z,74.90
2017-12-15T11:33:22.198Z,74.90
2017-12-15T11:35:49.698Z,74.80
2017-12-15T11:38:17.208Z,74.60
2017-12-15T11:40:45.899Z,75.40
2017-12-15T11:43:13.401Z,75.40
2017-12-15T11:45:40.951Z,76.00
2017-12-15T11:48:08.456Z,74.90
2017-12-15T11:50:35.946Z,74.80
2017-12-15T11:53:03.458Z,75.40
2017-12-15T11:55:30.963Z,75.90
2017-12-15T11:57:59.979Z,75.80
2017-12-15T12:00:28.277Z,76.10
2017-12-15T12:02:55.769Z,76.10
2017-12-15T12:05:23.272Z,76.10
2017-12-15T12:07:50.791Z,76.50
2017-12-15T12:10:18.362Z,77.50
2017-12-15T12:12:45.895Z,77.20
2017-12-15T12:15:14.193Z,76.90
2017-12-15T12:17:43.527Z,76.80
2017-12-15T12:20:12.002Z,77.10
2017-12-15T12:22:39.554Z,76.90
2017-12-15T12:25:07.113Z,76.30
2017-12-15T12:27:34.797Z,76.60
2017-12-15T12:30:03.405Z,77.10
2017-12-15T12:32:30.936Z,77.00
2017-12-15T12:34:58.484Z,77.10
2017-12-15T12:37:26.837Z,77.60
2017-12-15T12:39:54.344Z,77.60
2017-12-15T12:42:21.843Z,76.60
2017-12-15T12:44:49.337Z,76.60
2017-12-15T12:47:17.676Z,76.70
2017-12-15T12:49:45.156Z,77.30
2017-12-15T12:52:13.821Z,77.40
2017-12-15T12:54:41.340Z,77.20
2017-12-15T12:57:09.853Z,77.50
2017-12-15T12:59:37.317Z,77.50
2017-12-15T13:02:05.179Z,77.70
2017-12-15T13:04:32.716Z,77.60
2017-12-15T13:07:01.001Z,79.00
2017-12-15T13:09:29.293Z,78.10
2017-12-15T13:11:56.860Z,78.10
2017-12-15T13:14:25.127Z,78.90
2017-12-15T13:16:53.411Z,78.80
2017-12-15T13:19:21.932Z,78.60
2017-12-15T13:21:49.457Z,78.60
2017-12-15T13:24:17.785Z,78.70
2017-12-15T13:26:45.342Z,78.50
2017-12-15T13:29:12.886Z,77.90
2017-12-15T13:31:41.262Z,78.20
2017-12-15T13:34:08.928Z,78.30
2017-12-15T13:36:37.193Z,78.80
2017-12-15T13:39:05.505Z,78.70
2017-12-15T13:41:33.091Z,78.50
2017-12-15T13:44:01.148Z,78.80
2017-12-15T13:46:28.650Z,78.40
2017-12-15T13:48:56.249Z,79.20
2017-12-15T13:51:24.677Z,78.50
2017-12-15T13:53:52.502Z,78.50
2017-12-15T13:56:20.740Z,79.40
2017-12-15T13:58:48.270Z,79.30
2017-12-15T14:01:15.805Z,78.80
2017-12-15T14:03:43.294Z,79.20
2017-12-15T14:06:10.840Z,80.00
2017-12-15T14:08:38.332Z,79.20
2017-12-15T14:11:06.062Z,79.40
2017-12-15T14:13:34.349Z,79.30
2017-12-15T14:16:02.626Z,79.50
2017-12-15T14:18:30.907Z,79.50
2017-12-15T14:20:59.234Z,80.80
2017-12-15T14:23:27.079Z,80.80
2017-12-15T14:25:54.593Z,79.80
2017-12-15T14:28:22.082Z,79.40
2017-12-15T14:30:50.370Z,79.00
2017-12-15T14:33:18.640Z,79.10
2017-12-15T14:35:46.908Z,79.40
2017-12-15T14:38:14.429Z,79.40
2017-12-15T14:40:41.968Z,79.70
2017-12-15T14:43:09.487Z,79.80
2017-12-15T14:45:37.092Z,79.20
2017-12-15T14:48:05.353Z,78.90
2017-12-15T14:50:32.883Z,78.90
2017-12-15T14:53:00.398Z,78.50
2017-12-15T14:55:28.672Z,79.20
2017-12-15T14:57:57.922Z,79.20
2017-12-15T15:00:25.428Z,79.20
2017-12-15T15:02:52.951Z,79.00
2017-12-15T15:05:20.485Z,78.60
2017-12-15T15:07:48.255Z,78.50
2017-12-15T15:10:15.795Z,78.80
2017-12-15T15:12:43.336Z,78.50
2017-12-15T15:15:10.853Z,78.60
2017-12-15T15:17:39.883Z,77.80
2017-12-15T15:20:07.418Z,77.50
2017-12-15T15:22:34.919Z,77.40
2017-12-15T15:25:02.436Z,77.30
2017-12-15T15:27:30.528Z,77.70
2017-12-15T15:29:58.040Z,77.80
2017-12-15T15:32:25.568Z,78.10
2017-12-15T15:34:53.060Z,78.30
2017-12-15T15:37:20.560Z,78.40
2017-12-15T15:39:48.097Z,78.60
2017-12-15T15:42:15.601Z,78.50
2017-12-15T15:44:43.117Z,78.50
2017-12-15T15:47:10.636Z,78.20
2017-12-15T15:49:38.233Z,78.10
2017-12-15T15:52:05.739Z,78.10
2017-12-15T15:54:33.232Z,78.30
2017-12-15T15:57:00.792Z,77.80
2017-12-15T15:59:28.913Z,77.90
2017-12-15T16:01:56.424Z,77.90
2017-12-15T16:04:23.956Z,78.00
2017-12-15T16:06:52.955Z,77.40
2017-12-15T16:09:21.335Z,77.90
2017-12-15T16:11:49.623Z,77.10
2017-12-15T16:14:17.868Z,77.20
2017-12-15T16:16:45.382Z,77.40
2017-12-15T16:19:13.537Z,77.50
2017-12-15T16:21:41.819Z,77.60
2017-12-15T16:24:10.413Z,77.30
2017-12-15T16:26:38.668Z,77.10
2017-12-15T16:29:06.281Z,77.00
2017-12-15T16:31:33.778Z,77.30
2017-12-15T16:34:01.272Z,77.20
2017-12-15T16:36:29.557Z,77.50
2017-12-15T16:38:57.976Z,77.20
2017-12-15T16:41:25.512Z,77.00
2017-12-15T16:43:53.761Z,77.50
2017-12-15T16:46:21.555Z,77.50
2017-12-15T16:48:49.829Z,77.40
2017-12-15T16:51:17.336Z,77.30
2017-12-15T16:53:44.836Z,77.50
2017-12-15T16:56:12.364Z,77.50
2017-12-15T16:58:39.907Z,77.40
2017-12-15T17:01:07.416Z,78.00
2017-12-15T17:03:34.925Z,77.40
2017-12-15T17:06:02.417Z,77.50
2017-12-15T17:08:29.944Z,77.80
2017-12-15T17:10:58.317Z,77.00
2017-12-15T17:13:25.838Z,76.90
2017-12-15T17:15:53.329Z,76.90
2017-12-15T17:18:20.846Z,76.90
2017-12-15T17:20:48.356Z,77.10
2017-12-15T17:23:15.954Z,77.40
2017-12-15T17:25:44.229Z,76.70
2017-12-15T17:28:12.642Z,76.50
2017-12-15T17:30:41.350Z,76.50
2017-12-15T17:33:09.789Z,76.60
2017-12-15T17:35:37.784Z,76.50
2017-12-15T17:38:05.285Z,76.50
2017-12-15T17:40:32.885Z,76.40
2017-12-15T17:43:01.162Z,76.70
2017-12-15T17:45:28.804Z,76.60
2017-12-15T17:47:56.357Z,76.80
2017-12-15T17:50:23.860Z,76.70
2017-12-15T17:52:52.157Z,77.10
2017-12-15T17:55:19.750Z,77.00
2017-12-15T17:57:47.232Z,76.80
2017-12-15T18:00:14.837Z,76.30
2017-12-15T18:02:43.145Z,76.60
2017-12-15T18:05:10.707Z,76.70
2017-12-15T18:07:38.258Z,76.70
2017-12-15T18:10:05.801Z,76.70
2017-12-15T18:12:33.357Z,76.70
2017-12-15T18:15:01.647Z,77.00
2017-12-15T18:17:29.934Z,77.00
2017-12-15T18:19:58.214Z,77.30
2017-12-15T18:22:26.501Z,77.40
2017-12-15T18:24:55.583Z,77.50
2017-12-15T18:27:23.855Z,77.60
2017-12-15T18:29:51.369Z,77.60
2017-12-15T18:32:18.896Z,77.10
2017-12-15T18:34:47.271Z,77.10
2017-12-15T18:37:14.780Z,77.10
2017-12-15T18:39:42.315Z,76.70
2017-12-15T18:42:10.574Z,76.70
2017-12-15T18:44:38.176Z,76.70
2017-12-15T18:47:05.749Z,76.90
2017-12-15T18:49:33.315Z,76.40
2017-12-15T18:52:00.939Z,76.30
2017-12-15T18:54:29.240Z,76.70
2017-12-15T18:56:57.626Z,76.00
2017-12-15T18:59:25.158Z,75.90
2017-12-15T19:01:52.643Z,76.00
2017-12-15T19:04:20.939Z,75.60
2017-12-15T19:06:48.450Z,75.60
2017-12-15T19:09:16.087Z,75.70
2017-12-15T19:11:43.629Z,75.80
2017-12-15T19:14:11.147Z,75.40
2017-12-15T19:16:38.669Z,75.70
2017-12-15T19:19:06.180Z,75.70
2017-12-15T19:21:33.680Z,75.50
2017-12-15T19:24:01.171Z,75.30
2017-12-15T19:26:28.683Z,75.90
2017-12-15T19:28:57.781Z,75.70
2017-12-15T19:31:25.312Z,75.70
2017-12-15T19:33:52.856Z,75.80
2017-12-15T19:36:20.588Z,75.80
2017-12-15T19:38:48.866Z,75.10
2017-12-15T19:41:16.369Z,75.00
2017-12-15T19:43:43.955Z,75.20
2017-12-15T19:46:11.502Z,75.50
2017-12-15T19:48:39.069Z,75.40
2017-12-15T19:51:06.602Z,75.30
2017-12-15T19:53:34.982Z,75.30
2017-12-15T19:56:03.031Z,75.30
2017-12-15T19:58:30.651Z,75.20
2017-12-15T20:00:58.203Z,75.60
2017-12-15T20:03:25.880Z,75.40
2017-12-15T20:05:53.479Z,74.80
2017-12-15T20:08:21.310Z,75.20
2017-12-15T20:10:49.005Z,75.00
2017-12-15T20:13:16.836Z,74.80
2017-12-15T20:15:44.685Z,75.30
2017-12-15T20:18:12.605Z,74.80
2017-12-15T20:20:40.964Z,74.40
2017-12-15T20:23:08.749Z,74.50
2017-12-15T20:25:36.616Z,74.50
2017-12-15T20:28:04.488Z,74.10
2017-12-15T20:30:32.255Z,73.50
2017-12-15T20:33:00.133Z,74.10
2017-12-15T20:35:28.101Z,73.50
2017-12-15T20:37:56.085Z,73.50
2017-12-15T20:40:24.056Z,73.30
2017-12-15T20:42:52.321Z,73.60
2017-12-15T20:45:19.968Z,73.90
2017-12-15T20:47:47.779Z,73.90
2017-12-15T20:50:15.580Z,73.60
2017-12-15T20:52:44.334Z,73.00
2017-12-15T20:55:12.302Z,73.20
2017-12-15T20:57:39.988Z,72.90
2017-12-15T21:00:07.739Z,72.30
2017-12-15T21:02:35.609Z,72.40
2017-12-15T21:05:03.259Z,72.20
2017-12-15T21:07:31.149Z,72.00
2017-12-15T21:09:58.851Z,71.40
2017-12-15T21:12:27.265Z,71.90
2017-12-15T21:14:54.838Z,70.50
2017-12-15T21:17:23.127Z,70.80
2017-12-15T21:19:50.692Z,70.80
2017-12-15T21:22:18.214Z,71.00
2017-12-15T21:24:45.800Z,71.50
2017-12-15T21:27:13.297Z,72.20
2017-12-15T21:29:40.809Z,72.50
2017-12-15T21:32:08.599Z,72.70
2017-12-15T21:34:36.921Z,73.70
2017-12-15T21:37:04.899Z,73.70
2017-12-15T21:39:32.423Z,73.40
2017-12-15T21:42:00.692Z,72.70
2017-12-15T21:44:28.948Z,72.80
2017-12-15T21:46:56.505Z,72.80
2017-12-15T21:49:23.985Z,72.40
2017-12-15T21:51:51.587Z,72.50
2017-12-15T21:54:19.090Z,72.30
2017-12-15T21:56:46.604Z,71.30
2017-12-15T21:59:14.848Z,71.50
2017-12-15T22:01:42.384Z,71.50
2017-12-15T22:04:09.875Z,71.50
2017-12-15T22:06:37.374Z,71.20
2017-12-15T22:09:05.633Z,70.20
2017-12-15T22:11:33.972Z,70.70
2017-12-15T22:14:01.720Z,70.60
2017-12-15T22:16:30.122Z,70.40
2017-12-15T22:18:57.841Z,70.40
2017-12-15T22:21:25.833Z,70.30
2017-12-15T22:23:54.229Z,68.40
2017-12-15T22:26:22.581Z,68.70
2017-12-15T22:28:50.065Z,68.70
2017-12-15T22:31:18.340Z,66.80
2017-12-15T22:33:46.629Z,67.70
2017-12-15T22:36:14.121Z,67.70
2017-12-15T22:38:41.613Z,67.10
2017-12-15T22:41:09.323Z,66.60
2017-12-15T22:43:36.912Z,66.80
2017-12-15T22:46:04.489Z,67.30
2017-12-15T22:48:31.981Z,67.00
2017-12-15T22:51:00.474Z,66.30
2017-12-15T22:53:28.148Z,66.80
2017-12-15T22:55:55.660Z,67.20
2017-12-15T22:58:23.449Z,67.50
2017-12-15T23:00:51.526Z,66.90
2017-12-15T23:03:19.179Z,66.80
2017-12-15T23:05:46.692Z,66.30
2017-12-15T23:08:15.221Z,66.70
2017-12-15T23:10:44.299Z,66.70
2017-12-15T23:13:11.776Z,67.10
2017-12-15T23:15:39.277Z,67.90
2017-12-15T23:18:06.830Z,67.80
2017-12-15T23:20:34.840Z,67.50
2017-12-15T23:23:03.143Z,67.30
2017-12-15T23:25:31.002Z,67.10
2017-12-15T23:27:59.260Z,67.10
2017-12-15T23:30:26.762Z,67.10
2017-12-15T23:32:54.269Z,67.20
2017-12-15T23:35:22.095Z,67.70
2017-12-15T23:37:49.577Z,67.80
2017-12-15T23:40:17.077Z,67.60
2017-12-15T23:42:44.657Z,67.10
2017-12-15T23:45:12.251Z,66.60
2017-12-15T23:47:39.739Z,65.90
2017-12-15T23:50:07.245Z,65.70
2017-12-15T23:52:34.748Z,65.60
2017-12-15T23:55:14.236Z,66.50
2017-12-15T23:57:42.489Z,66.80
